createdAt,value
2023-03-12T00:01:21.522Z,3.22
2023-03-12T00:03:49.925Z,3.20
2023-03-12T00:06:18.424Z,3.22
2023-03-12T00:08:45.705Z,3.47
2023-03-12T00:11:16.260Z,3.47
2023-03-12T00:13:43.802Z,3.25
2023-03-12T00:16:16.398Z,2.83
2023-03-12T00:18:44.606Z,3.03
2023-03-12T00:21:12.007Z,2.97
2023-03-12T00:23:39.224Z,3.35
2023-03-12T00:26:12.796Z,3.40
2023-03-12T00:28:41.293Z,3.20
2023-03-12T00:31:23.838Z,2.75
2023-03-12T00:33:51.176Z,3.58
2023-03-12T00:36:21.417Z,2.95
2023-03-12T00:38:48.688Z,2.95
2023-03-12T00:41:15.992Z,3.03
2023-03-12T00:43:43.233Z,3.28
2023-03-12T00:46:10.526Z,3.20
2023-03-12T00:48:37.841Z,3.30
2023-03-12T00:51:05.843Z,3.25
2023-03-12T00:53:33.252Z,3.38
2023-03-12T00:56:00.540Z,3.13
2023-03-12T00:58:27.822Z,3.47
2023-03-12T01:00:55.147Z,2.95
2023-03-12T01:03:22.472Z,3.00
2023-03-12T01:05:54.027Z,3.22
2023-03-12T01:08:22.989Z,3.38
2023-03-12T01:10:50.460Z,3.30
2023-03-12T01:13:18.247Z,3.28
2023-03-12T01:15:45.556Z,2.85
2023-03-12T01:18:12.972Z,3.08
2023-03-12T01:20:41.017Z,3.13
2023-03-12T01:23:08.375Z,2.92
2023-03-12T01:25:36.722Z,3.00
2023-03-12T01:28:04.244Z,3.10
2023-03-12T01:30:31.606Z,3.33
2023-03-12T01:32:59.046Z,2.67
2023-03-12T01:35:26.745Z,2.88
2023-03-12T01:37:56.048Z,2.95
2023-03-12T01:40:29.072Z,2.95
2023-03-12T01:42:58.496Z,2.53
2023-03-12T01:46:11.079Z,2.92
2023-03-12T01:48:45.737Z,3.00
2023-03-12T01:53:47.142Z,2.78
2023-03-12T01:56:17.388Z,2.83
2023-03-12T01:58:49.822Z,3.22
2023-03-12T02:01:20.062Z,2.80
2023-03-12T02:03:52.094Z,3.08
2023-03-12T02:06:25.358Z,2.63
2023-03-12T02:08:53.340Z,2.70
2023-03-12T02:11:20.689Z,3.00
2023-03-12T02:13:48.041Z,2.95
2023-03-12T02:16:15.520Z,2.42
2023-03-12T02:18:43.883Z,2.80
2023-03-12T02:21:34.010Z,2.60
2023-03-12T02:24:13.830Z,2.40
2023-03-12T02:26:41.843Z,2.60
2023-03-12T02:29:10.395Z,2.67
2023-03-12T02:31:58.862Z,2.58
2023-03-12T02:34:26.207Z,2.20
2023-03-12T02:36:53.527Z,2.70
2023-03-12T02:39:21.075Z,2.50
2023-03-12T02:41:58.801Z,2.70
2023-03-12T02:44:31.593Z,2.45
2023-03-12T02:47:00.787Z,2.25
2023-03-12T02:49:32.459Z,2.38
2023-03-12T02:52:00.409Z,2.50
2023-03-12T02:54:27.936Z,2.33
2023-03-12T02:56:55.729Z,2.05
2023-03-12T02:59:26.578Z,2.70
2023-03-12T03:01:57.863Z,2.35
2023-03-12T03:04:26.586Z,2.38
2023-03-12T03:06:54.049Z,2.35
2023-03-12T03:09:22.426Z,2.40
2023-03-12T03:11:50.617Z,2.42
2023-03-12T03:14:18.473Z,2.35
2023-03-12T03:16:45.939Z,2.30
2023-03-12T03:19:13.205Z,2.20
2023-03-12T03:21:40.634Z,2.50
2023-03-12T03:24:08.024Z,2.20
2023-03-12T03:26:35.327Z,2.17
2023-03-12T03:29:02.985Z,2.58
2023-03-12T03:31:30.295Z,2.20
2023-03-12T03:33:57.648Z,2.00
2023-03-12T03:36:24.971Z,2.38
2023-03-12T03:38:52.225Z,2.40
2023-03-12T03:41:20.942Z,2.03
2023-03-12T03:43:48.312Z,2.40
2023-03-12T03:46:16.291Z,2.00
2023-03-12T03:48:43.861Z,2.15
2023-03-12T03:51:11.847Z,1.83
2023-03-12T03:53:39.343Z,2.22
2023-03-12T03:56:12.261Z,2.20
2023-03-12T03:58:39.526Z,2.03
2023-03-12T04:01:07.111Z,2.20
2023-03-12T04:03:35.213Z,2.00
2023-03-12T04:06:04.945Z,2.55
2023-03-12T04:08:35.482Z,2.20
2023-03-12T04:11:11.651Z,1.90
2023-03-12T04:13:39.352Z,2.30
2023-03-12T04:16:07.448Z,2.30
2023-03-12T04:18:36.293Z,2.33
2023-03-12T04:21:06.075Z,2.30
2023-03-12T04:23:33.857Z,2.45
2023-03-12T04:26:01.516Z,2.50
2023-03-12T04:28:28.979Z,2.40
2023-03-12T04:31:01.978Z,2.00
2023-03-12T04:33:31.317Z,2.30
2023-03-12T04:35:59.137Z,2.28
2023-03-12T04:38:27.447Z,2.17
2023-03-12T04:41:04.054Z,2.15
2023-03-12T04:43:32.312Z,2.47
2023-03-12T04:45:59.769Z,2.45
2023-03-12T04:48:28.060Z,2.55
2023-03-12T04:50:55.901Z,2.20
2023-03-12T04:53:23.662Z,2.65
2023-03-12T04:55:51.424Z,2.60
2023-03-12T04:58:19.638Z,2.25
2023-03-12T05:00:49.512Z,2.40
2023-03-12T05:03:17.649Z,2.15
2023-03-12T05:05:45.088Z,2.40
2023-03-12T05:08:12.380Z,2.30
2023-03-12T05:10:39.912Z,2.50
2023-03-12T05:13:15.260Z,2.63
2023-03-12T05:15:43.476Z,2.85
2023-03-12T05:18:10.806Z,2.28
2023-03-12T05:20:38.091Z,2.40
2023-03-12T05:23:05.448Z,2.63
2023-03-12T05:25:32.788Z,2.47
2023-03-12T05:28:00.107Z,2.67
2023-03-12T05:30:27.365Z,3.00
2023-03-12T05:32:54.668Z,2.70
2023-03-12T05:35:22.007Z,2.42
2023-03-12T05:37:49.243Z,2.47
2023-03-12T05:40:16.571Z,2.72
2023-03-12T05:42:43.786Z,2.90
2023-03-12T05:45:11.301Z,2.28
2023-03-12T05:47:38.637Z,2.80
2023-03-12T05:50:06.519Z,2.80
2023-03-12T05:52:33.770Z,2.50
2023-03-12T05:55:01.044Z,2.53
2023-03-12T05:57:28.353Z,2.40
2023-03-12T05:59:55.574Z,2.33
2023-03-12T06:02:23.014Z,2.50
2023-03-12T06:04:50.357Z,2.70
2023-03-12T06:07:17.696Z,2.45
2023-03-12T06:09:44.971Z,2.50
2023-03-12T06:12:12.294Z,2.67
2023-03-12T06:14:39.577Z,2.58
2023-03-12T06:17:06.894Z,2.63
2023-03-12T06:19:34.167Z,2.60
2023-03-12T06:22:01.536Z,2.60
2023-03-12T06:24:28.819Z,2.50
2023-03-12T06:26:56.065Z,2.83
2023-03-12T06:29:23.308Z,2.53
2023-03-12T06:31:52.253Z,2.80
2023-03-12T06:34:19.719Z,2.72
2023-03-12T06:36:47.020Z,2.80
2023-03-12T06:39:14.293Z,2.40
2023-03-12T06:41:41.897Z,2.72
2023-03-12T06:44:09.331Z,2.50
2023-03-12T06:46:37.113Z,2.45
2023-03-12T06:49:04.805Z,2.58
2023-03-12T06:51:32.081Z,2.92
2023-03-12T06:54:02.209Z,2.58
2023-03-12T06:56:30.775Z,2.83
2023-03-12T06:58:58.024Z,2.97
2023-03-12T07:01:25.340Z,3.05
2023-03-12T07:03:52.585Z,3.03
2023-03-12T07:06:21.911Z,3.15
2023-03-12T07:08:49.237Z,3.33
2023-03-12T07:11:17.752Z,3.60
2023-03-12T07:13:45.270Z,3.30
2023-03-12T07:16:12.940Z,4.22
2023-03-12T07:18:40.358Z,4.30
2023-03-12T07:21:07.901Z,3.80
2023-03-12T07:23:35.138Z,4.80
2023-03-12T07:26:07.191Z,5.18
2023-03-12T07:28:34.473Z,4.90
2023-03-12T07:31:05.400Z,4.95
2023-03-12T07:33:33.306Z,4.95
2023-03-12T07:36:01.036Z,5.45
2023-03-12T07:38:28.568Z,5.57
2023-03-12T07:40:57.564Z,5.70
2023-03-12T07:43:25.438Z,6.30
2023-03-12T07:45:53.364Z,6.47
2023-03-12T07:48:20.983Z,6.55
2023-03-12T07:50:48.736Z,6.80
2023-03-12T07:53:16.102Z,7.25
2023-03-12T07:55:46.305Z,7.15
2023-03-12T07:58:15.548Z,7.65
2023-03-12T08:00:43.040Z,7.78
2023-03-12T08:03:10.657Z,7.90
2023-03-12T08:05:38.361Z,8.63
2023-03-12T08:08:06.092Z,8.80
2023-03-12T08:10:33.495Z,9.02
2023-03-12T08:13:00.829Z,8.88
2023-03-12T08:15:28.146Z,9.15
2023-03-12T08:17:55.487Z,9.40
2023-03-12T08:20:22.787Z,9.63
2023-03-12T08:22:50.025Z,9.45
2023-03-12T08:25:18.611Z,9.98
2023-03-12T08:27:45.890Z,10.20
2023-03-12T08:30:13.567Z,10.48
2023-03-12T08:32:41.123Z,10.63
2023-03-12T08:35:10.124Z,10.43
2023-03-12T08:37:37.872Z,10.82
2023-03-12T08:40:14.319Z,10.95
2023-03-12T08:42:43.058Z,10.80
2023-03-12T08:45:12.159Z,10.65
2023-03-12T08:47:41.659Z,11.18
2023-03-12T08:50:11.310Z,11.05
2023-03-12T08:52:38.878Z,11.23
2023-03-12T08:55:06.608Z,11.50
2023-03-12T08:57:33.887Z,11.38
2023-03-12T09:00:01.328Z,11.20
2023-03-12T09:02:28.721Z,12.18
2023-03-12T09:04:56.006Z,11.85
2023-03-12T09:07:23.484Z,11.38
2023-03-12T09:09:50.725Z,11.88
2023-03-12T09:12:18.308Z,11.90
2023-03-12T09:17:33.021Z,12.40
2023-03-12T09:20:00.789Z,11.68
2023-03-12T09:22:30.449Z,11.57
2023-03-12T09:24:57.779Z,11.98
2023-03-12T09:27:25.112Z,12.68
2023-03-12T09:30:00.567Z,11.95
2023-03-12T09:32:28.956Z,11.85
2023-03-12T09:34:56.398Z,12.00
2023-03-12T09:37:24.422Z,11.23
2023-03-12T09:39:53.040Z,11.10
2023-03-12T09:42:44.045Z,12.23
2023-03-12T09:45:38.122Z,11.60
2023-03-12T09:48:12.488Z,11.80
2023-03-12T09:50:43.852Z,11.68
2023-03-12T09:53:20.268Z,12.20
2023-03-12T09:55:50.557Z,11.85
2023-03-12T09:58:30.980Z,11.18
2023-03-12T10:01:18.127Z,11.88
2023-03-12T10:03:55.716Z,11.70
2023-03-12T10:06:29.939Z,13.43
2023-03-12T10:09:18.710Z,12.20
2023-03-12T10:12:14.633Z,12.10
2023-03-12T10:14:41.835Z,13.10
2023-03-12T10:17:30.761Z,12.45
2023-03-12T10:20:17.215Z,12.32
2023-03-12T10:23:19.465Z,13.43
2023-03-12T10:25:59.430Z,13.20
2023-03-12T10:28:37.647Z,11.57
2023-03-12T10:31:16.149Z,11.40
2023-03-12T10:33:59.621Z,10.10
2023-03-12T10:36:36.649Z,12.35
2023-03-12T10:39:06.833Z,11.65
2023-03-12T10:41:35.033Z,10.35
2023-03-12T10:44:07.733Z,11.07
2023-03-12T10:46:41.194Z,11.60
2023-03-12T10:49:26.002Z,12.52
2023-03-12T10:52:15.774Z,12.38
2023-03-12T10:54:45.206Z,11.43
2023-03-12T10:57:15.379Z,10.52
2023-03-12T10:59:45.460Z,13.40
2023-03-12T11:02:34.549Z,12.85
2023-03-12T11:05:09.791Z,12.30
2023-03-12T11:07:37.193Z,10.88
2023-03-12T11:10:04.536Z,11.57
2023-03-12T11:12:34.728Z,11.77
2023-03-12T11:15:21.300Z,10.60
2023-03-12T11:17:48.856Z,11.07
2023-03-12T11:20:34.066Z,10.95
2023-03-12T11:23:20.044Z,10.82
2023-03-12T11:26:00.163Z,10.85
2023-03-12T11:28:38.106Z,11.00
2023-03-12T11:31:29.477Z,10.85
2023-03-12T11:34:05.037Z,11.35
2023-03-12T11:36:45.682Z,11.82
2023-03-12T11:39:45.964Z,11.93
2023-03-12T11:42:34.569Z,12.65
2023-03-12T11:45:07.557Z,15.07
2023-03-12T11:47:54.263Z,13.65
2023-03-12T11:50:43.520Z,13.45
2023-03-12T11:53:28.673Z,13.82
2023-03-12T11:56:01.722Z,14.52
2023-03-12T11:58:50.734Z,14.02
2023-03-12T12:01:32.243Z,14.38
2023-03-12T12:04:51.521Z,14.85
2023-03-12T12:07:42.273Z,14.35
2023-03-12T12:10:15.528Z,15.30
2023-03-12T12:13:00.405Z,15.02
2023-03-12T12:15:52.949Z,14.73
2023-03-12T12:19:10.428Z,14.77
2023-03-12T12:21:49.361Z,14.75
2023-03-12T12:24:31.797Z,14.25
2023-03-12T12:27:28.319Z,14.52
2023-03-12T12:30:07.294Z,17.50
2023-03-12T12:32:52.692Z,16.08
2023-03-12T12:35:20.029Z,14.32
2023-03-12T12:38:03.709Z,13.38
2023-03-12T12:40:40.890Z,13.65
2023-03-12T12:43:27.950Z,12.60
2023-03-12T12:46:02.312Z,13.02
2023-03-12T12:48:38.425Z,12.07
2023-03-12T12:51:08.996Z,12.70
2023-03-12T12:53:58.412Z,12.18
2023-03-12T12:56:47.921Z,12.13
2023-03-12T12:59:45.016Z,13.60
2023-03-12T13:02:23.137Z,12.52
2023-03-12T13:04:50.909Z,14.43
2023-03-12T13:07:20.988Z,13.60
2023-03-12T13:09:54.000Z,13.30
2023-03-12T13:12:34.788Z,12.88
2023-03-12T13:15:22.721Z,12.43
2023-03-12T13:17:55.870Z,11.88
2023-03-12T13:20:32.546Z,11.63
2023-03-12T13:23:31.242Z,9.73
2023-03-12T13:26:25.704Z,11.40
2023-03-12T13:28:56.950Z,10.23
2023-03-12T13:31:30.006Z,11.85
2023-03-12T13:34:09.046Z,11.93
2023-03-12T13:36:39.284Z,11.30
2023-03-12T13:39:15.415Z,11.45
2023-03-12T13:41:45.379Z,11.60
2023-03-12T13:44:31.255Z,20.48
2023-03-12T13:47:20.094Z,17.85
2023-03-12T13:49:56.412Z,15.95
2023-03-12T13:52:31.289Z,15.02
2023-03-12T13:55:01.382Z,14.82
2023-03-12T13:57:28.575Z,15.57
2023-03-12T13:59:58.064Z,14.88
2023-03-12T14:02:34.336Z,14.20
2023-03-12T14:05:11.244Z,14.00
2023-03-12T14:07:57.121Z,13.25
2023-03-12T14:10:43.457Z,13.10
2023-03-12T14:13:23.194Z,13.75
2023-03-12T14:15:58.204Z,12.23
2023-03-12T14:18:30.341Z,12.25
2023-03-12T14:21:00.451Z,12.95
2023-03-12T14:23:39.955Z,13.32
2023-03-12T14:26:08.517Z,12.43
2023-03-12T14:28:42.668Z,12.73
2023-03-12T14:31:14.849Z,12.57
2023-03-12T14:34:01.865Z,12.35
2023-03-12T14:37:06.869Z,12.07
2023-03-12T14:39:56.422Z,12.63
2023-03-12T14:42:29.662Z,12.45
2023-03-12T14:45:01.955Z,12.23
2023-03-12T14:47:29.782Z,11.63
2023-03-12T14:49:58.480Z,11.70
2023-03-12T14:52:29.517Z,11.52
2023-03-12T14:55:02.554Z,11.35
2023-03-12T14:57:30.319Z,11.05
2023-03-12T14:59:59.341Z,11.90
2023-03-12T15:02:28.575Z,11.75
2023-03-12T15:04:58.385Z,12.05
2023-03-12T15:07:34.730Z,10.50
2023-03-12T15:10:06.108Z,11.13
2023-03-12T15:12:37.941Z,10.35
2023-03-12T15:15:20.385Z,10.05
2023-03-12T15:17:47.800Z,10.48
2023-03-12T15:20:16.836Z,9.63
2023-03-12T15:22:44.716Z,10.88
2023-03-12T15:25:28.851Z,10.27
2023-03-12T15:28:11.080Z,10.25
2023-03-12T15:30:39.728Z,10.25
2023-03-12T15:33:14.834Z,10.27
2023-03-12T15:36:01.927Z,11.07
2023-03-12T15:38:32.898Z,10.57
2023-03-12T15:41:09.545Z,10.43
2023-03-12T15:43:37.713Z,10.07
2023-03-12T15:46:06.967Z,10.57
2023-03-12T15:48:38.589Z,10.52
2023-03-12T15:51:29.569Z,10.55
2023-03-12T15:54:02.465Z,10.27
2023-03-12T15:56:34.774Z,10.05
2023-03-12T15:59:18.926Z,11.93
2023-03-12T16:01:56.842Z,10.82
2023-03-12T16:04:24.689Z,10.70
2023-03-12T16:06:53.393Z,11.00
2023-03-12T16:09:26.134Z,10.48
2023-03-12T16:11:55.618Z,10.60
2023-03-12T16:14:33.020Z,10.82
2023-03-12T16:17:01.616Z,10.05
2023-03-12T16:19:33.151Z,10.52
2023-03-12T16:22:00.582Z,10.50
2023-03-12T16:24:27.963Z,10.65
2023-03-12T16:26:58.624Z,10.88
2023-03-12T16:29:34.854Z,9.93
2023-03-12T16:32:02.758Z,10.52
2023-03-12T16:34:30.197Z,10.68
2023-03-12T16:36:58.034Z,10.32
2023-03-12T16:39:25.639Z,9.80
2023-03-12T16:41:52.958Z,9.43
2023-03-12T16:44:22.355Z,10.27
2023-03-12T16:46:49.798Z,9.60
2023-03-12T16:49:20.013Z,9.68
2023-03-12T16:51:48.008Z,10.63
2023-03-12T16:54:15.376Z,9.20
2023-03-12T16:56:46.088Z,9.88
2023-03-12T16:59:38.121Z,9.10
2023-03-12T17:02:16.671Z,9.85
2023-03-12T17:04:44.168Z,10.55
2023-03-12T17:07:11.711Z,10.30
2023-03-12T17:09:39.462Z,10.50
2023-03-12T17:12:17.526Z,9.07
2023-03-12T17:14:44.823Z,9.32
2023-03-12T17:17:12.054Z,9.25
2023-03-12T17:19:39.397Z,9.20
2023-03-12T17:22:06.759Z,8.80
2023-03-12T17:24:34.116Z,9.48
2023-03-12T17:27:01.574Z,7.82
2023-03-12T17:29:28.935Z,8.07
2023-03-12T17:31:56.246Z,8.80
2023-03-12T17:34:23.499Z,7.93
2023-03-12T17:36:50.809Z,8.18
2023-03-12T17:39:18.145Z,8.85
2023-03-12T17:41:45.495Z,8.15
2023-03-12T17:44:14.795Z,8.13
2023-03-12T17:46:56.701Z,8.90
2023-03-12T17:49:26.419Z,8.52
2023-03-12T17:51:53.806Z,8.40
2023-03-12T17:54:22.185Z,8.38
2023-03-12T17:56:49.582Z,8.55
2023-03-12T17:59:16.988Z,8.35
2023-03-12T18:01:44.445Z,8.18
2023-03-12T18:04:12.032Z,9.00
2023-03-12T18:06:39.378Z,8.98
2023-03-12T18:09:06.633Z,8.23
2023-03-12T18:11:33.912Z,8.95
2023-03-12T18:14:01.214Z,8.15
2023-03-12T18:16:28.720Z,8.52
2023-03-12T18:18:56.069Z,9.30
2023-03-12T18:21:23.321Z,8.85
2023-03-12T18:23:50.814Z,9.38
2023-03-12T18:26:18.084Z,8.45
2023-03-12T18:28:45.373Z,9.30
2023-03-12T18:31:12.858Z,8.73
2023-03-12T18:33:41.783Z,8.93
2023-03-12T18:36:09.491Z,8.50
2023-03-12T18:38:36.901Z,8.55
2023-03-12T18:41:10.515Z,9.23
2023-03-12T18:43:38.386Z,8.95
2023-03-12T18:46:06.489Z,9.18
2023-03-12T18:48:33.867Z,10.23
2023-03-12T18:51:01.403Z,10.82
2023-03-12T18:53:29.227Z,10.77
2023-03-12T18:55:58.456Z,11.43
2023-03-12T18:58:29.004Z,11.23
2023-03-12T19:00:58.152Z,11.65
2023-03-12T19:03:26.174Z,12.23
2023-03-12T19:06:15.098Z,12.45
2023-03-12T19:08:43.182Z,12.95
2023-03-12T19:11:13.362Z,12.77
2023-03-12T19:13:41.503Z,13.90
2023-03-12T19:16:11.500Z,13.73
2023-03-12T19:18:39.661Z,14.25
2023-03-12T19:21:10.090Z,14.10
2023-03-12T19:23:37.385Z,14.15
2023-03-12T19:26:05.314Z,13.85
2023-03-12T19:28:33.235Z,14.25
2023-03-12T19:31:12.063Z,13.77
2023-03-12T19:33:39.454Z,13.98
2023-03-12T19:36:07.253Z,13.93
2023-03-12T19:38:34.760Z,14.70
2023-03-12T19:41:02.125Z,13.70
2023-03-12T19:43:29.452Z,13.73
2023-03-12T19:45:56.890Z,13.98
2023-03-12T19:48:27.026Z,13.85
2023-03-12T19:50:55.980Z,13.88
2023-03-12T19:53:24.536Z,14.48
2023-03-12T19:55:52.134Z,14.27
2023-03-12T19:58:19.435Z,14.68
2023-03-12T20:00:47.939Z,15.32
2023-03-12T20:03:15.271Z,14.73
2023-03-12T20:05:46.722Z,14.50
2023-03-12T20:08:14.076Z,14.10
2023-03-12T20:10:41.383Z,13.20
2023-03-12T20:13:12.842Z,13.27
2023-03-12T20:15:40.403Z,12.57
2023-03-12T20:18:07.799Z,12.43
2023-03-12T20:20:35.082Z,12.60
2023-03-12T20:23:02.598Z,11.85
2023-03-12T20:25:29.836Z,13.02
2023-03-12T20:27:58.451Z,12.15
2023-03-12T20:30:25.769Z,12.48
2023-03-12T20:32:53.116Z,13.77
2023-03-12T20:35:20.504Z,13.00
2023-03-12T20:37:47.828Z,11.43
2023-03-12T20:40:15.180Z,12.52
2023-03-12T20:42:43.381Z,11.98
2023-03-12T20:45:11.225Z,11.65
2023-03-12T20:47:40.321Z,11.52
2023-03-12T20:50:09.021Z,12.43
2023-03-12T20:52:36.497Z,11.50
2023-03-12T20:55:05.103Z,12.05
2023-03-12T20:57:32.320Z,12.02
2023-03-12T21:00:00.047Z,11.52
2023-03-12T21:02:27.416Z,10.60
2023-03-12T21:04:54.695Z,11.13
2023-03-12T21:07:21.940Z,11.77
2023-03-12T21:09:49.782Z,11.40
2023-03-12T21:12:17.089Z,11.95
2023-03-12T21:14:44.416Z,10.88
2023-03-12T21:17:13.779Z,11.30
2023-03-12T21:19:42.237Z,11.70
2023-03-12T21:22:10.156Z,11.55
2023-03-12T21:24:37.528Z,11.93
2023-03-12T21:27:05.013Z,11.82
2023-03-12T21:29:32.293Z,12.35
2023-03-12T21:31:59.586Z,12.77
2023-03-12T21:34:30.035Z,12.20
2023-03-12T21:36:57.318Z,12.23
2023-03-12T21:39:24.712Z,12.60
2023-03-12T21:41:51.952Z,12.40
2023-03-12T21:44:19.330Z,12.65
2023-03-12T21:46:46.683Z,12.85
2023-03-12T21:49:14.194Z,12.70
2023-03-12T21:51:41.666Z,13.30
2023-03-12T21:54:08.924Z,13.27
2023-03-12T21:56:36.325Z,12.65
2023-03-12T21:59:04.315Z,13.20
2023-03-12T22:01:31.697Z,13.27
2023-03-12T22:04:01.024Z,12.35
2023-03-12T22:06:28.368Z,12.70
2023-03-12T22:08:56.006Z,12.55
2023-03-12T22:11:23.454Z,12.63
2023-03-12T22:13:50.792Z,12.48
2023-03-12T22:16:18.159Z,12.93
2023-03-12T22:18:46.539Z,12.45
2023-03-12T22:21:16.745Z,11.82
2023-03-12T22:23:44.053Z,11.48
2023-03-12T22:26:11.431Z,11.52
2023-03-12T22:28:38.682Z,11.52
2023-03-12T22:31:08.408Z,12.07
2023-03-12T22:33:36.303Z,11.85
2023-03-12T22:36:11.381Z,12.27
2023-03-12T22:38:39.780Z,12.73
2023-03-12T22:41:14.321Z,12.65
2023-03-12T22:46:09.028Z,11.77
2023-03-12T22:48:36.845Z,11.90
2023-03-12T22:51:05.412Z,12.30
2023-03-12T22:53:33.529Z,11.43
2023-03-12T22:56:05.996Z,10.57
2023-03-12T22:58:34.030Z,11.38
2023-03-12T23:01:04.284Z,10.32
2023-03-12T23:03:32.573Z,10.30
2023-03-12T23:06:00.213Z,9.63
2023-03-12T23:08:28.161Z,9.65
2023-03-12T23:11:00.944Z,10.43
2023-03-12T23:13:30.400Z,9.05
2023-03-12T23:16:09.671Z,10.57
2023-03-12T23:18:37.141Z,9.18
2023-03-12T23:21:10.168Z,9.20
2023-03-12T23:23:39.607Z,9.38
2023-03-12T23:26:06.935Z,9.00
2023-03-12T23:28:34.233Z,8.85
2023-03-12T23:31:04.880Z,8.27
2023-03-12T23:33:32.678Z,9.40
2023-03-12T23:36:06.270Z,8.65
2023-03-12T23:38:37.007Z,8.15
2023-03-12T23:41:08.343Z,8.73
2023-03-12T23:43:35.805Z,8.77
2023-03-12T23:46:05.280Z,8.27
2023-03-12T23:48:35.110Z,7.60
2023-03-12T23:51:29.187Z,7.50
2023-03-12T23:53:58.818Z,7.03
2023-03-12T23:56:30.976Z,8.23
2023-03-12T23:58:58.199Z,7.32
